createdAt,value
2022-08-17T00:01:55.786Z,85.05
2022-08-17T00:04:32.761Z,84.89
2022-08-17T00:07:09.968Z,85.21
2022-08-17T00:09:48.463Z,85.61
2022-08-17T00:12:44.340Z,85.49
2022-08-17T00:15:30.085Z,85.88
2022-08-17T00:18:58.206Z,86.18
2022-08-17T00:21:56.393Z,86.46
2022-08-17T00:24:36.885Z,86.51
2022-08-17T00:27:20.219Z,86.83
2022-08-17T00:29:51.305Z,87.02
2022-08-17T00:33:12.570Z,87.28
2022-08-17T00:35:27.978Z,87.52
2022-08-17T00:37:56.413Z,87.92
2022-08-17T00:40:44.934Z,88.27
2022-08-17T00:43:45.737Z,88.63
2022-08-17T00:46:35.011Z,88.48
2022-08-17T00:49:25.104Z,88.87
2022-08-17T00:52:11.632Z,88.55
2022-08-17T00:54:51.768Z,88.47
2022-08-17T00:57:31.223Z,88.42
2022-08-17T01:00:12.636Z,88.28
2022-08-17T01:02:58.645Z,88.49
2022-08-17T01:05:42.730Z,88.93
2022-08-17T01:08:19.458Z,88.97
2022-08-17T01:11:01.962Z,88.52
2022-08-17T01:13:52.289Z,88.37
2022-08-17T01:16:48.701Z,88.66
2022-08-17T01:19:34.191Z,88.77
2022-08-17T01:22:17.729Z,88.99
2022-08-17T01:24:57.080Z,89.03
2022-08-17T01:27:30.071Z,89.32
2022-08-17T01:30:00.471Z,89.60
2022-08-17T01:33:04.503Z,89.58
2022-08-17T01:35:49.251Z,89.76
2022-08-17T01:38:33.188Z,89.85
2022-08-17T01:41:33.393Z,90.25
2022-08-17T01:44:23.800Z,90.34
2022-08-17T01:46:59.713Z,90.53
2022-08-17T01:49:39.041Z,90.94
2022-08-17T01:52:40.710Z,91.35
2022-08-17T01:55:32.887Z,91.69
2022-08-17T01:58:26.725Z,91.72
2022-08-17T02:01:11.688Z,92.13
2022-08-17T02:03:59.396Z,92.16
2022-08-17T02:06:54.066Z,92.24
2022-08-17T02:09:29.994Z,92.14
2022-08-17T02:12:39.105Z,91.98
2022-08-17T02:15:02.787Z,91.79
2022-08-17T02:17:40.909Z,92.20
2022-08-17T02:20:14.113Z,92.38
2022-08-17T02:23:08.939Z,92.33
2022-08-17T02:25:53.177Z,92.61
2022-08-17T02:28:33.984Z,92.71
2022-08-17T02:31:19.694Z,92.64
2022-08-17T02:34:26.764Z,92.77
2022-08-17T02:37:15.329Z,92.80
2022-08-17T02:39:55.392Z,93.07
2022-08-17T02:42:38.912Z,92.97
2022-08-17T02:45:12.454Z,93.19
2022-08-17T02:47:46.674Z,93.13
2022-08-17T02:50:24.078Z,93.17
2022-08-17T02:53:04.567Z,93.24
2022-08-17T02:55:50.410Z,93.45
2022-08-17T02:58:34.514Z,93.25
2022-08-17T03:01:33.332Z,93.29
2022-08-17T03:04:03.213Z,93.45
2022-08-17T03:06:53.166Z,93.61
2022-08-17T03:09:31.942Z,93.82
2022-08-17T03:12:21.121Z,93.89
2022-08-17T03:15:07.225Z,93.85
2022-08-17T03:17:46.802Z,93.75
2022-08-17T03:20:18.093Z,93.96
2022-08-17T03:23:06.989Z,93.93
2022-08-17T03:25:49.838Z,93.92
2022-08-17T03:28:36.715Z,94.04
2022-08-17T03:31:22.660Z,94.07
2022-08-17T03:33:56.082Z,94.10
2022-08-17T03:36:36.747Z,94.04
2022-08-17T03:39:20.890Z,94.20
2022-08-17T03:42:03.498Z,94.50
2022-08-17T03:44:41.214Z,94.52
2022-08-17T03:47:27.991Z,94.65
2022-08-17T03:50:14.725Z,94.80
2022-08-17T03:53:08.909Z,94.98
2022-08-17T03:55:57.213Z,94.81
2022-08-17T03:58:29.338Z,94.97
2022-08-17T04:01:07.213Z,94.93
2022-08-17T04:03:57.750Z,95.27
2022-08-17T04:06:50.617Z,95.45
2022-08-17T04:09:24.689Z,95.45
2022-08-17T04:12:00.268Z,95.33
2022-08-17T04:15:00.516Z,95.52
2022-08-17T04:17:35.677Z,95.18
2022-08-17T04:20:15.730Z,95.29
2022-08-17T04:23:03.076Z,95.04
2022-08-17T04:25:44.310Z,95.16
2022-08-17T04:28:37.674Z,95.08
2022-08-17T04:31:12.347Z,94.94
2022-08-17T04:33:46.322Z,94.87
2022-08-17T04:36:17.049Z,95.05
2022-08-17T04:38:58.178Z,94.95
2022-08-17T04:41:44.742Z,94.53
2022-08-17T04:44:27.280Z,94.56
2022-08-17T04:47:26.435Z,94.30
2022-08-17T04:50:05.521Z,93.88
2022-08-17T04:52:46.073Z,93.90
2022-08-17T04:55:26.042Z,93.60
2022-08-17T04:58:11.454Z,93.44
2022-08-17T05:00:45.924Z,93.22
2022-08-17T05:03:19.023Z,93.10
2022-08-17T05:05:54.021Z,92.89
2022-08-17T05:08:22.098Z,92.47
2022-08-17T05:11:11.363Z,92.33
2022-08-17T05:13:50.934Z,92.53
2022-08-17T05:16:31.458Z,92.43
2022-08-17T05:19:31.664Z,92.37
2022-08-17T05:22:40.093Z,92.07
2022-08-17T05:25:49.275Z,91.61
2022-08-17T05:28:27.998Z,91.25
2022-08-17T05:31:13.102Z,91.68
2022-08-17T05:34:00.291Z,91.65
2022-08-17T05:36:41.658Z,91.52
2022-08-17T05:39:27.814Z,91.66
2022-08-17T05:42:16.498Z,91.21
2022-08-17T05:44:56.158Z,91.08
2022-08-17T05:47:33.907Z,90.46
2022-08-17T05:50:09.497Z,90.58
2022-08-17T05:52:57.541Z,90.05
2022-08-17T05:56:02.215Z,90.28
2022-08-17T05:58:46.202Z,89.99
2022-08-17T06:01:32.768Z,89.94
2022-08-17T06:04:27.254Z,90.17
2022-08-17T06:07:22.142Z,90.21
2022-08-17T06:10:13.448Z,89.64
2022-08-17T06:13:15.747Z,88.62
2022-08-17T06:16:33.270Z,88.08
2022-08-17T06:19:34.547Z,88.05
2022-08-17T06:22:13.104Z,87.55
2022-08-17T06:25:29.656Z,86.51
2022-08-17T06:28:02.520Z,86.52
2022-08-17T06:31:22.506Z,86.14
2022-08-17T06:34:21.431Z,85.66
2022-08-17T06:37:15.993Z,85.41
2022-08-17T06:39:57.968Z,84.31
2022-08-17T06:43:02.863Z,83.93
2022-08-17T06:46:06.635Z,82.51
2022-08-17T06:48:59.311Z,82.11
2022-08-17T06:51:36.583Z,82.45
2022-08-17T06:54:25.387Z,82.99
2022-08-17T06:57:14.431Z,83.26
2022-08-17T07:00:03.782Z,82.74
2022-08-17T07:02:57.196Z,82.46
2022-08-17T07:05:42.423Z,81.83
2022-08-17T07:08:35.571Z,81.72
2022-08-17T07:11:06.112Z,82.19
2022-08-17T07:13:41.171Z,82.80
2022-08-17T07:16:34.919Z,82.58
2022-08-17T07:19:13.679Z,82.86
2022-08-17T07:21:52.733Z,82.70
2022-08-17T07:24:37.674Z,81.47
2022-08-17T07:27:31.873Z,81.74
2022-08-17T07:30:26.225Z,81.69
2022-08-17T07:33:13.433Z,81.60
2022-08-17T07:35:57.418Z,80.89
2022-08-17T07:38:55.334Z,80.28
2022-08-17T07:41:53.129Z,79.90
2022-08-17T07:45:00.352Z,77.75
2022-08-17T07:47:55.850Z,78.25
2022-08-17T07:50:53.846Z,78.59
2022-08-17T07:56:34.786Z,76.04
2022-08-17T07:59:14.559Z,76.72
2022-08-17T08:01:44.872Z,77.23
2022-08-17T08:07:50.230Z,76.59
2022-08-17T08:10:30.383Z,76.15
2022-08-17T08:13:16.361Z,75.37
2022-08-17T08:15:58.980Z,75.41
2022-08-17T08:18:58.950Z,75.11
2022-08-17T08:21:47.411Z,74.94
2022-08-17T08:24:32.647Z,72.83
2022-08-17T08:27:27.078Z,72.94
2022-08-17T08:30:10.819Z,73.87
2022-08-17T08:32:57.572Z,72.77
2022-08-17T08:39:20.701Z,73.31
2022-08-17T08:42:16.171Z,72.78
2022-08-17T08:45:04.784Z,72.45
2022-08-17T08:47:38.958Z,72.04
2022-08-17T08:50:37.437Z,72.24
2022-08-17T08:53:26.023Z,72.03
2022-08-17T08:56:04.921Z,72.17
2022-08-17T08:58:58.589Z,71.28
2022-08-17T09:01:42.719Z,71.82
2022-08-17T09:04:28.687Z,71.48
2022-08-17T09:07:21.876Z,70.60
2022-08-17T09:10:18.390Z,69.39
2022-08-17T09:13:09.929Z,67.08
2022-08-17T09:16:06.648Z,66.20
2022-08-17T09:19:01.893Z,67.12
2022-08-17T09:21:49.302Z,66.59
2022-08-17T09:24:36.690Z,65.40
2022-08-17T09:27:36.327Z,65.38
2022-08-17T09:30:18.093Z,64.78
2022-08-17T09:32:54.926Z,64.32
2022-08-17T09:35:36.947Z,65.03
2022-08-17T09:38:32.563Z,63.46
2022-08-17T09:41:13.621Z,63.46
2022-08-17T09:43:57.559Z,62.97
2022-08-17T09:47:04.684Z,63.23
2022-08-17T09:50:07.139Z,63.82
2022-08-17T09:52:44.817Z,64.65
2022-08-17T09:55:23.284Z,64.83
2022-08-17T09:58:29.645Z,64.29
2022-08-17T10:01:11.513Z,63.71
2022-08-17T10:03:52.564Z,63.67
2022-08-17T10:06:45.653Z,64.60
2022-08-17T10:09:34.610Z,65.32
2022-08-17T10:12:21.081Z,66.16
2022-08-17T10:15:23.942Z,65.74
2022-08-17T10:18:01.032Z,64.53
2022-08-17T10:20:34.358Z,64.35
2022-08-17T10:24:08.382Z,64.84
2022-08-17T10:26:56.297Z,63.28
2022-08-17T10:30:02.887Z,64.23
2022-08-17T10:32:56.599Z,63.75
2022-08-17T10:36:00.790Z,64.81
2022-08-17T10:38:47.055Z,64.69
2022-08-17T10:41:58.618Z,64.23
2022-08-17T10:44:41.214Z,65.00
2022-08-17T10:47:16.227Z,63.83
2022-08-17T10:50:19.750Z,61.68
2022-08-17T10:52:53.678Z,58.72
2022-08-17T10:55:26.077Z,57.73
2022-08-17T10:58:20.991Z,57.24
2022-08-17T11:00:54.668Z,56.25
2022-08-17T11:03:35.240Z,55.47
2022-08-17T11:06:22.796Z,55.16
2022-08-17T11:09:18.899Z,56.08
2022-08-17T11:12:07.661Z,56.35
2022-08-17T11:14:58.029Z,55.75
2022-08-17T11:17:40.452Z,56.12
2022-08-17T11:20:34.465Z,57.33
2022-08-17T11:23:49.221Z,56.68
2022-08-17T11:26:46.708Z,56.94
2022-08-17T11:29:44.027Z,55.59
2022-08-17T11:32:37.511Z,53.73
2022-08-17T11:35:35.233Z,50.39
2022-08-17T11:38:16.366Z,49.80
2022-08-17T11:41:18.907Z,49.94
2022-08-17T11:44:05.213Z,51.75
2022-08-17T11:47:10.248Z,51.72
2022-08-17T11:50:08.985Z,51.83
2022-08-17T11:52:47.243Z,50.20
2022-08-17T11:55:45.930Z,48.96
2022-08-17T11:58:37.553Z,48.55
2022-08-17T12:01:39.968Z,46.03
2022-08-17T12:04:58.854Z,44.45
2022-08-17T12:07:51.753Z,46.68
2022-08-17T12:10:53.968Z,45.43
2022-08-17T12:13:38.597Z,44.83
2022-08-17T12:16:37.726Z,45.78
2022-08-17T12:19:23.622Z,43.49
2022-08-17T12:22:18.766Z,43.11
2022-08-17T12:24:57.908Z,45.28
2022-08-17T12:28:05.519Z,45.40
2022-08-17T12:31:12.386Z,44.71
2022-08-17T12:33:44.424Z,45.15
2022-08-17T12:36:30.828Z,46.68
2022-08-17T12:39:14.877Z,46.80
2022-08-17T12:42:02.543Z,45.80
2022-08-17T12:47:52.878Z,47.70
2022-08-17T12:50:44.406Z,45.72
2022-08-17T12:53:52.751Z,45.05
2022-08-17T12:56:29.171Z,44.18
2022-08-17T12:59:06.293Z,44.27
2022-08-17T13:02:01.399Z,43.96
2022-08-17T13:04:48.557Z,44.68
2022-08-17T13:07:59.688Z,44.50
2022-08-17T13:10:44.041Z,46.65
2022-08-17T13:13:21.358Z,46.69
2022-08-17T13:16:00.414Z,47.11
2022-08-17T13:18:50.382Z,48.24
2022-08-17T13:21:39.020Z,48.59
2022-08-17T13:24:43.920Z,48.49
2022-08-17T13:27:40.253Z,47.91
2022-08-17T13:30:21.956Z,47.33
2022-08-17T13:33:29.224Z,45.80
2022-08-17T13:36:52.014Z,45.08
2022-08-17T13:39:55.801Z,45.03
2022-08-17T13:42:53.081Z,44.59
2022-08-17T13:46:00.649Z,44.96
2022-08-17T13:48:33.837Z,45.56
2022-08-17T13:51:27.866Z,46.09
2022-08-17T13:54:23.657Z,45.48
2022-08-17T13:57:00.771Z,46.84
2022-08-17T13:59:53.225Z,46.69
2022-08-17T14:02:36.115Z,47.14
2022-08-17T14:05:29.979Z,48.87
2022-08-17T14:08:17.065Z,49.63
2022-08-17T14:11:01.128Z,49.68
2022-08-17T14:13:38.208Z,50.63
2022-08-17T14:16:35.229Z,50.94
2022-08-17T14:19:13.555Z,51.22
2022-08-17T14:22:08.574Z,50.93
2022-08-17T14:24:53.666Z,50.86
2022-08-17T14:27:47.474Z,50.94
2022-08-17T14:30:25.711Z,51.02
2022-08-17T14:33:09.110Z,50.96
2022-08-17T14:35:42.758Z,50.59
2022-08-17T14:38:48.029Z,50.25
2022-08-17T14:41:35.854Z,50.35
2022-08-17T14:44:14.778Z,51.40
2022-08-17T14:50:15.954Z,51.95
2022-08-17T14:53:11.529Z,52.05
2022-08-17T14:55:55.680Z,51.68
2022-08-17T14:58:41.022Z,51.84
2022-08-17T15:01:25.798Z,52.46
2022-08-17T15:04:01.237Z,52.06
2022-08-17T15:06:36.137Z,52.61
2022-08-17T15:09:06.560Z,53.17
2022-08-17T15:11:53.043Z,52.60
2022-08-17T15:14:36.812Z,52.81
2022-08-17T15:20:24.616Z,52.96
2022-08-17T15:23:13.207Z,52.60
2022-08-17T15:26:12.006Z,52.67
2022-08-17T15:28:49.984Z,52.52
2022-08-17T15:31:31.947Z,53.16
2022-08-17T15:34:08.098Z,53.06
2022-08-17T15:37:02.206Z,52.98
2022-08-17T15:39:55.164Z,52.66
2022-08-17T15:42:44.074Z,53.05
2022-08-17T15:45:30.904Z,53.19
2022-08-17T15:48:16.652Z,52.51
2022-08-17T15:51:03.011Z,51.45
2022-08-17T15:53:56.139Z,52.26
2022-08-17T15:56:49.345Z,52.62
2022-08-17T15:59:30.547Z,52.83
2022-08-17T16:03:44.837Z,52.62
2022-08-17T16:05:31.315Z,52.94
2022-08-17T16:08:15.897Z,53.05
2022-08-17T16:11:04.506Z,53.11
2022-08-17T16:13:41.722Z,53.21
2022-08-17T16:16:31.999Z,53.62
2022-08-17T16:19:39.084Z,53.86
2022-08-17T16:22:13.906Z,54.18
2022-08-17T16:24:57.471Z,54.58
2022-08-17T16:27:55.167Z,55.12
2022-08-17T16:30:39.956Z,55.76
2022-08-17T16:33:30.137Z,55.43
2022-08-17T16:36:28.041Z,55.78
2022-08-17T16:39:00.622Z,56.47
2022-08-17T16:41:47.862Z,57.11
2022-08-17T16:44:40.334Z,58.26
2022-08-17T16:47:19.269Z,59.04
2022-08-17T16:50:02.210Z,59.52
2022-08-17T16:53:00.796Z,59.88
2022-08-17T16:55:50.403Z,60.17
2022-08-17T16:58:39.348Z,60.52
2022-08-17T17:01:38.636Z,60.77
2022-08-17T17:04:36.910Z,61.36
2022-08-17T17:07:25.493Z,61.51
2022-08-17T17:10:02.032Z,61.66
2022-08-17T17:13:02.714Z,61.75
2022-08-17T17:16:12.223Z,62.08
2022-08-17T17:19:17.788Z,62.26
2022-08-17T17:22:30.705Z,62.43
2022-08-17T17:25:25.765Z,62.61
2022-08-17T17:28:17.179Z,62.64
2022-08-17T17:32:00.415Z,63.11
2022-08-17T17:34:41.702Z,63.36
2022-08-17T17:37:45.382Z,63.50
2022-08-17T17:40:29.140Z,63.77
2022-08-17T17:43:38.802Z,64.20
2022-08-17T17:46:27.871Z,64.46
2022-08-17T17:49:05.974Z,64.64
2022-08-17T17:52:18.408Z,64.89
2022-08-17T17:55:21.168Z,65.27
2022-08-17T17:58:41.683Z,65.59
2022-08-17T18:01:47.169Z,66.09
2022-08-17T18:04:40.204Z,66.11
2022-08-17T18:07:56.078Z,66.54
2022-08-17T18:10:41.195Z,66.50
2022-08-17T18:13:35.068Z,66.73
2022-08-17T18:16:35.342Z,66.87
2022-08-17T18:19:25.731Z,67.23
2022-08-17T18:22:16.286Z,67.51
2022-08-17T18:24:57.761Z,67.69
2022-08-17T18:27:36.668Z,67.72
2022-08-17T18:30:32.853Z,68.02
2022-08-17T18:33:24.659Z,68.40
2022-08-17T18:36:08.820Z,68.45
2022-08-17T18:38:47.500Z,68.99
2022-08-17T18:41:47.449Z,69.13
2022-08-17T18:44:40.887Z,69.58
2022-08-17T18:47:20.263Z,69.90
2022-08-17T18:50:43.889Z,70.13
2022-08-17T18:53:35.400Z,70.30
2022-08-17T18:56:34.111Z,70.66
2022-08-17T18:59:21.625Z,70.94
2022-08-17T19:02:27.419Z,71.21
2022-08-17T19:05:25.946Z,71.69
2022-08-17T19:08:13.417Z,71.86
2022-08-17T19:11:05.207Z,72.10
2022-08-17T19:14:14.271Z,72.19
2022-08-17T19:17:02.055Z,72.57
2022-08-17T19:19:58.904Z,72.60
2022-08-17T19:22:48.009Z,72.72
2022-08-17T19:25:30.741Z,73.00
2022-08-17T19:28:03.105Z,73.03
2022-08-17T19:30:51.793Z,73.08
2022-08-17T19:33:29.979Z,73.22
2022-08-17T19:36:21.179Z,73.75
2022-08-17T19:38:58.872Z,73.59
2022-08-17T19:41:55.847Z,73.67
2022-08-17T19:44:50.333Z,73.99
2022-08-17T19:47:54.227Z,74.17
2022-08-17T19:51:02.474Z,74.34
2022-08-17T19:54:08.477Z,74.52
2022-08-17T19:56:56.624Z,74.96
2022-08-17T19:59:48.296Z,75.12
2022-08-17T20:02:43.603Z,75.41
2022-08-17T20:06:14.276Z,75.69
2022-08-17T20:09:15.328Z,75.51
2022-08-17T20:12:15.391Z,75.80
2022-08-17T20:14:53.645Z,75.81
2022-08-17T20:17:50.847Z,76.06
2022-08-17T20:20:36.334Z,76.19
2022-08-17T20:23:32.332Z,76.38
2022-08-17T20:26:19.735Z,76.30
2022-08-17T20:29:37.601Z,76.67
2022-08-17T20:32:46.478Z,76.77
2022-08-17T20:35:39.982Z,76.98
2022-08-17T20:38:28.345Z,77.13
2022-08-17T20:41:31.026Z,77.30
2022-08-17T20:44:21.915Z,77.60
2022-08-17T20:47:11.652Z,77.60
2022-08-17T20:49:57.407Z,77.80
2022-08-17T20:52:44.450Z,78.08
2022-08-17T20:55:52.054Z,77.98
2022-08-17T20:58:49.386Z,77.99
2022-08-17T21:01:35.092Z,77.86
2022-08-17T21:04:41.582Z,77.93
2022-08-17T21:08:04.408Z,78.17
2022-08-17T21:14:18.727Z,78.58
2022-08-17T21:17:14.739Z,78.32
2022-08-17T21:20:40.038Z,78.62
2022-08-17T21:23:20.036Z,78.75
2022-08-17T21:26:18.923Z,78.74
2022-08-17T21:29:32.465Z,78.66
2022-08-17T21:32:19.029Z,79.28
2022-08-17T21:35:18.083Z,79.49
2022-08-17T21:38:00.993Z,79.63
2022-08-17T21:40:33.663Z,79.83
2022-08-17T21:43:27.595Z,80.33
2022-08-17T21:46:08.298Z,80.93
2022-08-17T21:49:04.772Z,80.73
2022-08-17T21:52:06.629Z,80.82
2022-08-17T21:55:10.056Z,80.79
2022-08-17T21:58:11.467Z,80.71
2022-08-17T22:01:05.380Z,80.38
2022-08-17T22:03:43.893Z,80.60
2022-08-17T22:06:36.094Z,80.57
2022-08-17T22:09:47.664Z,80.50
2022-08-17T22:12:53.817Z,80.42
2022-08-17T22:15:53.646Z,80.77
2022-08-17T22:18:32.753Z,80.92
2022-08-17T22:21:09.363Z,80.99
2022-08-17T22:24:20.387Z,81.34
2022-08-17T22:27:07.619Z,81.83
2022-08-17T22:29:43.970Z,81.78
2022-08-17T22:32:41.975Z,81.99
2022-08-17T22:36:05.186Z,81.87
2022-08-17T22:38:56.553Z,81.92
2022-08-17T22:41:32.440Z,82.10
2022-08-17T22:44:22.381Z,81.82
2022-08-17T22:46:52.899Z,81.77
2022-08-17T22:49:54.207Z,81.73
2022-08-17T22:52:34.593Z,82.03
2022-08-17T22:55:33.053Z,81.92
2022-08-17T22:58:28.596Z,82.10
2022-08-17T23:01:20.542Z,82.37
2022-08-17T23:04:18.744Z,82.64
2022-08-17T23:06:53.985Z,82.93
2022-08-17T23:09:25.715Z,83.07
2022-08-17T23:12:18.975Z,83.13
2022-08-17T23:15:10.777Z,83.61
2022-08-17T23:17:53.611Z,83.66
2022-08-17T23:20:25.052Z,83.62
2022-08-17T23:23:07.442Z,83.70
2022-08-17T23:25:53.278Z,83.96
2022-08-17T23:28:30.978Z,83.95
2022-08-17T23:31:09.189Z,83.84
2022-08-17T23:33:47.248Z,84.03
2022-08-17T23:36:28.919Z,84.05
2022-08-17T23:39:11.366Z,84.00
2022-08-17T23:41:56.279Z,84.38
2022-08-17T23:44:32.564Z,84.40
2022-08-17T23:47:19.445Z,84.85
2022-08-17T23:50:01.605Z,85.07
2022-08-17T23:52:41.213Z,84.95
2022-08-17T23:55:25.855Z,85.08
2022-08-17T23:58:07.982Z,85.24
